sensor_id;sensor_type;location;lat;lon;timestamp;P1;durP1;ratioP1;P2;durP2;ratioP2
5127;SDS011;2582;48.770;9.190;2022-12-20T00:00:52;10.57;;;9.47;;
5127;SDS011;2582;48.770;9.190;2022-12-20T00:03:18;12.33;;;10.13;;
5127;SDS011;2582;48.770;9.190;2022-12-20T00:05:44;11.87;;;10.50;;
5127;SDS011;2582;48.770;9.190;2022-12-20T00:08:10;11.10;;;9.83;;
5127;SDS011;2582;48.770;9.190;2022-12-20T00:10:37;12.40;;;10.13;;
5127;SDS011;2582;48.770;9.190;2022-12-20T00:13:03;13.43;;;10.13;;
5127;SDS011;2582;48.770;9.190;2022-12-20T00:15:30;10.07;;;9.10;;
5127;SDS011;2582;48.770;9.190;2022-12-20T00:17:55;11.07;;;10.00;;
5127;SDS011;2582;48.770;9.190;2022-12-20T00:20:22;10.63;;;9.50;;
5127;SDS011;2582;48.770;9.190;2022-12-20T00:22:47;13.37;;;9.50;;
5127;SDS011;2582;48.770;9.190;2022-12-20T00:25:13;12.37;;;11.03;;
5127;SDS011;2582;48.770;9.190;2022-12-20T00:27:38;9.43;;;8.43;;
5127;SDS011;2582;48.770;9.190;2022-12-20T00:30:04;11.60;;;10.40;;
5127;SDS011;2582;48.770;9.190;2022-12-20T00:32:31;12.07;;;9.90;;
5127;SDS011;2582;48.770;9.190;2022-12-20T00:34:56;12.17;;;10.97;;
5127;SDS011;2582;48.770;9.190;2022-12-20T00:37:22;10.70;;;9.50;;
5127;SDS011;2582;48.770;9.190;2022-12-20T00:39:47;13.40;;;9.87;;
5127;SDS011;2582;48.770;9.190;2022-12-20T00:42:13;11.73;;;10.53;;
5127;SDS011;2582;48.770;9.190;2022-12-20T00:44:39;12.10;;;10.07;;
5127;SDS011;2582;48.770;9.190;2022-12-20T00:47:05;13.63;;;12.17;;
5127;SDS011;2582;48.770;9.190;2022-12-20T00:49:31;13.50;;;11.30;;
5127;SDS011;2582;48.770;9.190;2022-12-20T00:51:56;12.80;;;11.50;;
5127;SDS011;2582;48.770;9.190;2022-12-20T00:54:22;12.23;;;10.70;;
5127;SDS011;2582;48.770;9.190;2022-12-20T00:56:47;14.73;;;10.57;;
5127;SDS011;2582;48.770;9.190;2022-12-20T00:59:13;12.57;;;10.93;;
5127;SDS011;2582;48.770;9.190;2022-12-20T01:01:38;10.50;;;9.50;;
5127;SDS011;2582;48.770;9.190;2022-12-20T01:04:04;13.10;;;10.67;;
5127;SDS011;2582;48.770;9.190;2022-12-20T01:06:30;10.40;;;9.40;;
5127;SDS011;2582;48.770;9.190;2022-12-20T01:08:56;11.50;;;10.07;;
5127;SDS011;2582;48.770;9.190;2022-12-20T01:11:24;13.07;;;10.93;;
5127;SDS011;2582;48.770;9.190;2022-12-20T01:13:54;12.27;;;10.90;;
5127;SDS011;2582;48.770;9.190;2022-12-20T01:16:22;11.90;;;10.70;;
5127;SDS011;2582;48.770;9.190;2022-12-20T01:18:50;13.10;;;10.93;;
5127;SDS011;2582;48.770;9.190;2022-12-20T01:21:17;13.73;;;11.50;;
5127;SDS011;2582;48.770;9.190;2022-12-20T01:23:43;11.60;;;10.13;;
5127;SDS011;2582;48.770;9.190;2022-12-20T01:26:11;12.97;;;11.60;;
5127;SDS011;2582;48.770;9.190;2022-12-20T01:28:39;12.63;;;10.23;;
5127;SDS011;2582;48.770;9.190;2022-12-20T01:31:07;16.67;;;11.90;;
5127;SDS011;2582;48.770;9.190;2022-12-20T01:33:34;11.30;;;10.00;;
5127;SDS011;2582;48.770;9.190;2022-12-20T01:36:03;15.00;;;11.60;;
5127;SDS011;2582;48.770;9.190;2022-12-20T01:38:30;12.70;;;10.53;;
5127;SDS011;2582;48.770;9.190;2022-12-20T01:40:57;11.20;;;10.03;;
5127;SDS011;2582;48.770;9.190;2022-12-20T01:43:24;12.40;;;10.80;;
5127;SDS011;2582;48.770;9.190;2022-12-20T01:45:51;12.10;;;10.80;;
5127;SDS011;2582;48.770;9.190;2022-12-20T01:48:19;12.87;;;11.10;;
5127;SDS011;2582;48.770;9.190;2022-12-20T01:50:48;11.70;;;10.50;;
5127;SDS011;2582;48.770;9.190;2022-12-20T01:53:15;14.13;;;12.20;;
5127;SDS011;2582;48.770;9.190;2022-12-20T01:55:43;11.80;;;10.70;;
5127;SDS011;2582;48.770;9.190;2022-12-20T01:58:11;12.47;;;9.57;;
5127;SDS011;2582;48.770;9.190;2022-12-20T02:00:39;11.97;;;9.50;;
5127;SDS011;2582;48.770;9.190;2022-12-20T02:03:09;15.17;;;12.67;;
5127;SDS011;2582;48.770;9.190;2022-12-20T02:05:41;12.83;;;11.43;;
5127;SDS011;2582;48.770;9.190;2022-12-20T02:08:12;16.00;;;11.90;;
5127;SDS011;2582;48.770;9.190;2022-12-20T02:16:09;15.83;;;13.33;;
5127;SDS011;2582;48.770;9.190;2022-12-20T02:18:42;14.73;;;12.60;;
5127;SDS011;2582;48.770;9.190;2022-12-20T02:21:32;12.60;;;11.23;;
5127;SDS011;2582;48.770;9.190;2022-12-20T02:30:04;13.80;;;12.40;;
5127;SDS011;2582;48.770;9.190;2022-12-20T02:32:36;11.33;;;10.17;;
5127;SDS011;2582;48.770;9.190;2022-12-20T02:35:26;13.20;;;11.53;;
5127;SDS011;2582;48.770;9.190;2022-12-20T02:37:55;13.63;;;12.23;;
5127;SDS011;2582;48.770;9.190;2022-12-20T02:40:25;13.07;;;11.77;;
5127;SDS011;2582;48.770;9.190;2022-12-20T02:43:00;12.80;;;11.43;;
5127;SDS011;2582;48.770;9.190;2022-12-20T02:45:30;14.03;;;11.67;;
5127;SDS011;2582;48.770;9.190;2022-12-20T02:48:01;14.53;;;12.43;;
5127;SDS011;2582;48.770;9.190;2022-12-20T02:50:36;14.67;;;12.93;;
5127;SDS011;2582;48.770;9.190;2022-12-20T02:53:04;12.60;;;11.40;;
5127;SDS011;2582;48.770;9.190;2022-12-20T02:55:40;12.00;;;10.37;;
5127;SDS011;2582;48.770;9.190;2022-12-20T02:58:14;13.27;;;11.90;;
5127;SDS011;2582;48.770;9.190;2022-12-20T03:00:46;13.80;;;11.37;;
5127;SDS011;2582;48.770;9.190;2022-12-20T03:03:15;11.00;;;9.90;;
5127;SDS011;2582;48.770;9.190;2022-12-20T03:05:46;14.80;;;12.40;;
5127;SDS011;2582;48.770;9.190;2022-12-20T03:08:14;14.67;;;11.53;;
5127;SDS011;2582;48.770;9.190;2022-12-20T03:10:40;14.57;;;11.53;;
5127;SDS011;2582;48.770;9.190;2022-12-20T03:13:06;13.50;;;12.13;;
5127;SDS011;2582;48.770;9.190;2022-12-20T03:15:32;13.37;;;11.87;;
5127;SDS011;2582;48.770;9.190;2022-12-20T03:17:57;12.83;;;11.47;;
5127;SDS011;2582;48.770;9.190;2022-12-20T03:20:23;12.90;;;11.50;;
5127;SDS011;2582;48.770;9.190;2022-12-20T03:22:49;11.10;;;9.50;;
5127;SDS011;2582;48.770;9.190;2022-12-20T03:25:15;13.40;;;12.00;;
5127;SDS011;2582;48.770;9.190;2022-12-20T03:27:40;10.73;;;9.53;;
5127;SDS011;2582;48.770;9.190;2022-12-20T03:30:06;16.80;;;13.70;;
5127;SDS011;2582;48.770;9.190;2022-12-20T03:32:32;12.90;;;11.10;;
5127;SDS011;2582;48.770;9.190;2022-12-20T03:34:58;14.37;;;12.87;;
5127;SDS011;2582;48.770;9.190;2022-12-20T03:37:23;15.40;;;12.80;;
5127;SDS011;2582;48.770;9.190;2022-12-20T03:39:49;18.23;;;14.00;;
5127;SDS011;2582;48.770;9.190;2022-12-20T03:42:14;15.63;;;13.27;;
5127;SDS011;2582;48.770;9.190;2022-12-20T03:44:40;14.70;;;13.23;;
5127;SDS011;2582;48.770;9.190;2022-12-20T03:47:06;14.83;;;12.23;;
5127;SDS011;2582;48.770;9.190;2022-12-20T03:49:31;16.17;;;13.93;;
5127;SDS011;2582;48.770;9.190;2022-12-20T03:51:57;14.63;;;13.03;;
5127;SDS011;2582;48.770;9.190;2022-12-20T03:54:22;14.67;;;13.10;;
5127;SDS011;2582;48.770;9.190;2022-12-20T03:56:48;13.93;;;12.33;;
5127;SDS011;2582;48.770;9.190;2022-12-20T03:59:13;12.33;;;11.10;;
5127;SDS011;2582;48.770;9.190;2022-12-20T04:01:39;13.03;;;11.63;;
5127;SDS011;2582;48.770;9.190;2022-12-20T04:04:06;13.57;;;12.20;;
5127;SDS011;2582;48.770;9.190;2022-12-20T04:06:31;12.13;;;10.90;;
5127;SDS011;2582;48.770;9.190;2022-12-20T04:08:57;11.77;;;9.67;;
5127;SDS011;2582;48.770;9.190;2022-12-20T04:11:23;10.83;;;9.83;;
5127;SDS011;2582;48.770;9.190;2022-12-20T04:13:49;12.07;;;10.87;;
5127;SDS011;2582;48.770;9.190;2022-12-20T04:16:18;11.60;;;10.40;;
5127;SDS011;2582;48.770;9.190;2022-12-20T04:18:45;12.87;;;10.80;;
5127;SDS011;2582;48.770;9.190;2022-12-20T04:21:11;12.10;;;10.80;;
5127;SDS011;2582;48.770;9.190;2022-12-20T04:23:37;12.97;;;11.33;;
5127;SDS011;2582;48.770;9.190;2022-12-20T04:26:05;13.37;;;10.70;;
5127;SDS011;2582;48.770;9.190;2022-12-20T04:28:32;10.43;;;9.33;;
5127;SDS011;2582;48.770;9.190;2022-12-20T04:30:58;13.10;;;11.30;;
5127;SDS011;2582;48.770;9.190;2022-12-20T04:33:24;12.50;;;9.93;;
5127;SDS011;2582;48.770;9.190;2022-12-20T04:35:51;10.63;;;9.47;;
5127;SDS011;2582;48.770;9.190;2022-12-20T04:38:17;11.40;;;9.40;;
5127;SDS011;2582;48.770;9.190;2022-12-20T04:40:44;9.87;;;8.87;;
5127;SDS011;2582;48.770;9.190;2022-12-20T04:43:09;11.83;;;10.00;;
5127;SDS011;2582;48.770;9.190;2022-12-20T04:45:35;10.57;;;9.30;;
5127;SDS011;2582;48.770;9.190;2022-12-20T04:48:00;11.40;;;10.23;;
5127;SDS011;2582;48.770;9.190;2022-12-20T04:50:26;10.90;;;9.80;;
5127;SDS011;2582;48.770;9.190;2022-12-20T04:52:51;11.13;;;9.23;;
5127;SDS011;2582;48.770;9.190;2022-12-20T04:55:36;13.83;;;11.00;;
5127;SDS011;2582;48.770;9.190;2022-12-20T04:58:03;13.60;;;9.63;;
5127;SDS011;2582;48.770;9.190;2022-12-20T05:00:28;10.70;;;9.20;;
5127;SDS011;2582;48.770;9.190;2022-12-20T05:02:54;10.60;;;9.50;;
5127;SDS011;2582;48.770;9.190;2022-12-20T05:05:19;11.03;;;9.90;;
5127;SDS011;2582;48.770;9.190;2022-12-20T05:07:45;12.00;;;10.80;;
5127;SDS011;2582;48.770;9.190;2022-12-20T05:10:11;10.60;;;9.50;;
5127;SDS011;2582;48.770;9.190;2022-12-20T05:12:36;10.97;;;9.90;;
5127;SDS011;2582;48.770;9.190;2022-12-20T05:15:02;11.23;;;9.80;;
5127;SDS011;2582;48.770;9.190;2022-12-20T05:17:28;11.37;;;10.27;;
5127;SDS011;2582;48.770;9.190;2022-12-20T05:19:54;11.17;;;10.07;;
5127;SDS011;2582;48.770;9.190;2022-12-20T05:22:19;10.07;;;9.03;;
5127;SDS011;2582;48.770;9.190;2022-12-20T05:25:03;10.77;;;9.67;;
5127;SDS011;2582;48.770;9.190;2022-12-20T05:27:48;10.17;;;9.17;;
5127;SDS011;2582;48.770;9.190;2022-12-20T05:30:13;10.10;;;8.80;;
5127;SDS011;2582;48.770;9.190;2022-12-20T05:32:40;10.40;;;8.87;;
5127;SDS011;2582;48.770;9.190;2022-12-20T05:35:06;9.57;;;8.60;;
5127;SDS011;2582;48.770;9.190;2022-12-20T05:37:32;10.23;;;9.30;;
5127;SDS011;2582;48.770;9.190;2022-12-20T05:39:57;9.00;;;8.10;;
5127;SDS011;2582;48.770;9.190;2022-12-20T05:42:23;10.20;;;8.10;;
5127;SDS011;2582;48.770;9.190;2022-12-20T05:44:48;9.43;;;8.50;;
5127;SDS011;2582;48.770;9.190;2022-12-20T05:47:15;10.20;;;8.90;;
5127;SDS011;2582;48.770;9.190;2022-12-20T05:49:41;8.03;;;7.27;;
5127;SDS011;2582;48.770;9.190;2022-12-20T05:52:06;9.83;;;8.80;;
5127;SDS011;2582;48.770;9.190;2022-12-20T05:54:32;8.63;;;7.50;;
5127;SDS011;2582;48.770;9.190;2022-12-20T05:56:58;8.90;;;7.60;;
5127;SDS011;2582;48.770;9.190;2022-12-20T05:59:23;13.10;;;9.03;;
5127;SDS011;2582;48.770;9.190;2022-12-20T06:01:49;9.83;;;8.73;;
5127;SDS011;2582;48.770;9.190;2022-12-20T06:04:14;8.10;;;7.30;;
5127;SDS011;2582;48.770;9.190;2022-12-20T06:06:40;9.23;;;8.00;;
5127;SDS011;2582;48.770;9.190;2022-12-20T06:09:05;8.53;;;7.30;;
5127;SDS011;2582;48.770;9.190;2022-12-20T06:11:31;8.37;;;7.40;;
5127;SDS011;2582;48.770;9.190;2022-12-20T06:13:56;9.93;;;8.87;;
5127;SDS011;2582;48.770;9.190;2022-12-20T06:16:23;11.53;;;8.80;;
5127;SDS011;2582;48.770;9.190;2022-12-20T06:18:49;8.57;;;7.47;;
5127;SDS011;2582;48.770;9.190;2022-12-20T06:21:15;8.50;;;7.60;;
5127;SDS011;2582;48.770;9.190;2022-12-20T06:23:41;10.73;;;9.67;;
5127;SDS011;2582;48.770;9.190;2022-12-20T06:26:07;16.53;;;15.07;;
5127;SDS011;2582;48.770;9.190;2022-12-20T06:28:35;9.00;;;8.20;;
5127;SDS011;2582;48.770;9.190;2022-12-20T06:31:07;12.33;;;8.23;;
5127;SDS011;2582;48.770;9.190;2022-12-20T06:33:34;8.90;;;8.00;;
5127;SDS011;2582;48.770;9.190;2022-12-20T06:36:00;8.93;;;7.60;;
5127;SDS011;2582;48.770;9.190;2022-12-20T06:38:25;8.87;;;7.20;;
5127;SDS011;2582;48.770;9.190;2022-12-20T06:40:51;9.70;;;7.50;;
5127;SDS011;2582;48.770;9.190;2022-12-20T06:43:16;9.80;;;7.93;;
5127;SDS011;2582;48.770;9.190;2022-12-20T06:45:42;7.23;;;6.37;;
5127;SDS011;2582;48.770;9.190;2022-12-20T06:48:08;8.73;;;7.83;;
5127;SDS011;2582;48.770;9.190;2022-12-20T06:50:34;11.67;;;8.40;;
5127;SDS011;2582;48.770;9.190;2022-12-20T06:52:59;10.20;;;9.30;;
5127;SDS011;2582;48.770;9.190;2022-12-20T06:55:25;9.30;;;8.50;;
5127;SDS011;2582;48.770;9.190;2022-12-20T06:57:50;8.80;;;7.90;;
5127;SDS011;2582;48.770;9.190;2022-12-20T07:00:16;10.77;;;9.33;;
5127;SDS011;2582;48.770;9.190;2022-12-20T07:02:42;12.23;;;10.60;;
5127;SDS011;2582;48.770;9.190;2022-12-20T07:05:09;11.53;;;10.13;;
5127;SDS011;2582;48.770;9.190;2022-12-20T07:11:02;10.80;;;9.70;;
5127;SDS011;2582;48.770;9.190;2022-12-20T07:13:31;8.40;;;7.60;;
5127;SDS011;2582;48.770;9.190;2022-12-20T07:15:58;10.67;;;9.30;;
5127;SDS011;2582;48.770;9.190;2022-12-20T07:18:24;9.27;;;8.37;;
5127;SDS011;2582;48.770;9.190;2022-12-20T07:20:50;9.70;;;8.33;;
5127;SDS011;2582;48.770;9.190;2022-12-20T07:23:15;7.43;;;6.73;;
5127;SDS011;2582;48.770;9.190;2022-12-20T07:25:42;9.13;;;7.83;;
5127;SDS011;2582;48.770;9.190;2022-12-20T07:28:08;10.80;;;8.90;;
5127;SDS011;2582;48.770;9.190;2022-12-20T07:30:34;8.93;;;8.00;;
5127;SDS011;2582;48.770;9.190;2022-12-20T07:33:00;9.63;;;8.67;;
5127;SDS011;2582;48.770;9.190;2022-12-20T07:35:26;9.93;;;8.80;;
5127;SDS011;2582;48.770;9.190;2022-12-20T07:37:51;10.27;;;9.27;;
5127;SDS011;2582;48.770;9.190;2022-12-20T07:40:17;10.83;;;8.70;;
5127;SDS011;2582;48.770;9.190;2022-12-20T07:42:42;12.87;;;9.47;;
5127;SDS011;2582;48.770;9.190;2022-12-20T07:45:08;12.67;;;8.57;;
5127;SDS011;2582;48.770;9.190;2022-12-20T07:47:34;11.27;;;9.50;;
5127;SDS011;2582;48.770;9.190;2022-12-20T07:49:59;11.90;;;8.20;;
5127;SDS011;2582;48.770;9.190;2022-12-20T07:52:25;10.10;;;7.93;;
5127;SDS011;2582;48.770;9.190;2022-12-20T07:54:54;8.90;;;8.00;;
5127;SDS011;2582;48.770;9.190;2022-12-20T07:57:26;9.13;;;7.90;;
5127;SDS011;2582;48.770;9.190;2022-12-20T07:59:58;12.37;;;9.00;;
5127;SDS011;2582;48.770;9.190;2022-12-20T08:02:34;12.20;;;8.93;;
5127;SDS011;2582;48.770;9.190;2022-12-20T08:05:04;9.93;;;8.90;;
5127;SDS011;2582;48.770;9.190;2022-12-20T08:07:31;11.70;;;10.00;;
5127;SDS011;2582;48.770;9.190;2022-12-20T08:09:57;11.27;;;8.80;;
5127;SDS011;2582;48.770;9.190;2022-12-20T08:12:23;9.77;;;8.33;;
5127;SDS011;2582;48.770;9.190;2022-12-20T08:14:52;9.37;;;8.47;;
5127;SDS011;2582;48.770;9.190;2022-12-20T08:17:20;9.13;;;7.83;;
5127;SDS011;2582;48.770;9.190;2022-12-20T08:19:46;9.23;;;7.23;;
5127;SDS011;2582;48.770;9.190;2022-12-20T08:22:12;12.10;;;6.93;;
5127;SDS011;2582;48.770;9.190;2022-12-20T08:24:38;9.43;;;7.73;;
5127;SDS011;2582;48.770;9.190;2022-12-20T08:27:04;8.80;;;7.43;;
5127;SDS011;2582;48.770;9.190;2022-12-20T08:29:30;7.83;;;7.13;;
5127;SDS011;2582;48.770;9.190;2022-12-20T08:31:55;8.77;;;7.70;;
5127;SDS011;2582;48.770;9.190;2022-12-20T08:34:21;8.40;;;7.57;;
5127;SDS011;2582;48.770;9.190;2022-12-20T08:36:47;10.07;;;7.50;;
5127;SDS011;2582;48.770;9.190;2022-12-20T08:39:12;7.93;;;7.13;;
5127;SDS011;2582;48.770;9.190;2022-12-20T08:41:38;8.17;;;7.33;;
5127;SDS011;2582;48.770;9.190;2022-12-20T08:44:04;11.63;;;8.60;;
5127;SDS011;2582;48.770;9.190;2022-12-20T08:46:30;10.77;;;8.60;;
5127;SDS011;2582;48.770;9.190;2022-12-20T08:48:55;8.27;;;7.30;;
5127;SDS011;2582;48.770;9.190;2022-12-20T08:51:21;7.30;;;6.50;;
5127;SDS011;2582;48.770;9.190;2022-12-20T08:53:46;10.63;;;8.07;;
5127;SDS011;2582;48.770;9.190;2022-12-20T08:56:13;7.63;;;6.67;;
5127;SDS011;2582;48.770;9.190;2022-12-20T08:58:40;7.70;;;6.17;;
5127;SDS011;2582;48.770;9.190;2022-12-20T09:01:09;6.57;;;5.90;;
5127;SDS011;2582;48.770;9.190;2022-12-20T09:03:40;6.53;;;5.87;;
5127;SDS011;2582;48.770;9.190;2022-12-20T09:06:09;7.87;;;6.30;;
5127;SDS011;2582;48.770;9.190;2022-12-20T09:08:37;7.13;;;5.53;;
5127;SDS011;2582;48.770;9.190;2022-12-20T09:11:04;7.97;;;5.77;;
5127;SDS011;2582;48.770;9.190;2022-12-20T09:13:35;8.40;;;6.63;;
5127;SDS011;2582;48.770;9.190;2022-12-20T09:16:02;8.50;;;5.67;;
5127;SDS011;2582;48.770;9.190;2022-12-20T09:18:29;8.70;;;6.57;;
5127;SDS011;2582;48.770;9.190;2022-12-20T09:20:58;7.37;;;6.20;;
5127;SDS011;2582;48.770;9.190;2022-12-20T09:23:24;9.93;;;6.67;;
5127;SDS011;2582;48.770;9.190;2022-12-20T09:25:50;6.10;;;5.50;;
5127;SDS011;2582;48.770;9.190;2022-12-20T09:28:15;8.03;;;5.80;;
5127;SDS011;2582;48.770;9.190;2022-12-20T09:30:41;7.87;;;6.00;;
5127;SDS011;2582;48.770;9.190;2022-12-20T09:33:07;9.07;;;6.77;;
5127;SDS011;2582;48.770;9.190;2022-12-20T09:35:32;10.70;;;7.60;;
5127;SDS011;2582;48.770;9.190;2022-12-20T09:37:58;7.70;;;6.40;;
5127;SDS011;2582;48.770;9.190;2022-12-20T09:40:26;7.53;;;6.10;;
5127;SDS011;2582;48.770;9.190;2022-12-20T09:42:56;11.70;;;6.63;;
5127;SDS011;2582;48.770;9.190;2022-12-20T09:45:29;7.70;;;6.50;;
5127;SDS011;2582;48.770;9.190;2022-12-20T09:47:59;8.40;;;6.37;;
5127;SDS011;2582;48.770;9.190;2022-12-20T09:50:50;8.60;;;6.27;;
5127;SDS011;2582;48.770;9.190;2022-12-20T10:01:29;8.70;;;6.50;;
5127;SDS011;2582;48.770;9.190;2022-12-20T10:03:57;10.67;;;7.17;;
5127;SDS011;2582;48.770;9.190;2022-12-20T10:12:24;6.43;;;4.73;;
5127;SDS011;2582;48.770;9.190;2022-12-20T10:17:46;9.80;;;6.73;;
5127;SDS011;2582;48.770;9.190;2022-12-20T10:20:43;5.67;;;4.93;;
5127;SDS011;2582;48.770;9.190;2022-12-20T10:26:14;6.47;;;5.27;;
5127;SDS011;2582;48.770;9.190;2022-12-20T10:28:39;7.50;;;5.43;;
5127;SDS011;2582;48.770;9.190;2022-12-20T10:31:06;15.80;;;6.53;;
5127;SDS011;2582;48.770;9.190;2022-12-20T10:33:36;6.70;;;5.30;;
5127;SDS011;2582;48.770;9.190;2022-12-20T10:38:48;6.40;;;5.80;;
5127;SDS011;2582;48.770;9.190;2022-12-20T10:41:16;5.60;;;4.97;;
5127;SDS011;2582;48.770;9.190;2022-12-20T10:43:49;10.37;;;5.90;;
5127;SDS011;2582;48.770;9.190;2022-12-20T10:46:20;5.37;;;4.40;;
5127;SDS011;2582;48.770;9.190;2022-12-20T10:48:47;8.33;;;5.70;;
5127;SDS011;2582;48.770;9.190;2022-12-20T10:51:16;5.67;;;4.70;;
5127;SDS011;2582;48.770;9.190;2022-12-20T10:53:51;7.80;;;5.67;;
5127;SDS011;2582;48.770;9.190;2022-12-20T10:56:22;6.80;;;4.80;;
5127;SDS011;2582;48.770;9.190;2022-12-20T10:59:02;6.43;;;5.70;;
5127;SDS011;2582;48.770;9.190;2022-12-20T11:01:39;7.93;;;5.20;;
5127;SDS011;2582;48.770;9.190;2022-12-20T11:04:26;5.80;;;5.20;;
5127;SDS011;2582;48.770;9.190;2022-12-20T11:06:56;5.27;;;4.70;;
5127;SDS011;2582;48.770;9.190;2022-12-20T11:09:30;6.43;;;5.83;;
5127;SDS011;2582;48.770;9.190;2022-12-20T11:12:06;6.27;;;5.73;;
5127;SDS011;2582;48.770;9.190;2022-12-20T11:14:39;6.53;;;5.43;;
5127;SDS011;2582;48.770;9.190;2022-12-20T11:17:16;8.53;;;5.80;;
5127;SDS011;2582;48.770;9.190;2022-12-20T11:20:12;8.37;;;6.03;;
5127;SDS011;2582;48.770;9.190;2022-12-20T11:28:58;8.70;;;6.37;;
5127;SDS011;2582;48.770;9.190;2022-12-20T11:34:49;9.10;;;6.73;;
5127;SDS011;2582;48.770;9.190;2022-12-20T11:40:33;8.90;;;7.57;;
5127;SDS011;2582;48.770;9.190;2022-12-20T11:46:14;8.33;;;7.40;;
5127;SDS011;2582;48.770;9.190;2022-12-20T11:51:44;9.50;;;8.50;;
5127;SDS011;2582;48.770;9.190;2022-12-20T11:54:22;9.10;;;8.20;;
5127;SDS011;2582;48.770;9.190;2022-12-20T11:56:53;9.67;;;8.60;;
5127;SDS011;2582;48.770;9.190;2022-12-20T12:02:21;9.53;;;7.63;;
5127;SDS011;2582;48.770;9.190;2022-12-20T12:04:53;8.43;;;7.00;;
5127;SDS011;2582;48.770;9.190;2022-12-20T12:07:41;7.67;;;6.50;;
5127;SDS011;2582;48.770;9.190;2022-12-20T12:10:15;6.70;;;6.00;;
5127;SDS011;2582;48.770;9.190;2022-12-20T12:13:34;7.67;;;6.30;;
5127;SDS011;2582;48.770;9.190;2022-12-20T12:16:00;7.00;;;6.40;;
5127;SDS011;2582;48.770;9.190;2022-12-20T12:18:37;8.47;;;6.87;;
5127;SDS011;2582;48.770;9.190;2022-12-20T12:24:00;9.03;;;7.13;;
5127;SDS011;2582;48.770;9.190;2022-12-20T12:26:39;11.17;;;7.00;;
5127;SDS011;2582;48.770;9.190;2022-12-20T12:29:08;9.07;;;7.70;;
5127;SDS011;2582;48.770;9.190;2022-12-20T12:31:38;11.87;;;8.77;;
5127;SDS011;2582;48.770;9.190;2022-12-20T12:36:49;9.73;;;7.53;;
5127;SDS011;2582;48.770;9.190;2022-12-20T12:45:19;9.97;;;9.03;;
5127;SDS011;2582;48.770;9.190;2022-12-20T12:47:54;9.00;;;7.93;;
5127;SDS011;2582;48.770;9.190;2022-12-20T12:50:34;9.50;;;8.17;;
5127;SDS011;2582;48.770;9.190;2022-12-20T13:04:51;5.47;;;4.50;;
5127;SDS011;2582;48.770;9.190;2022-12-20T13:10:01;7.30;;;6.50;;
5127;SDS011;2582;48.770;9.190;2022-12-20T13:15:47;7.77;;;4.80;;
5127;SDS011;2582;48.770;9.190;2022-12-20T13:17:48;7.00;;;4.60;;
5127;SDS011;2582;48.770;9.190;2022-12-20T13:20:22;7.80;;;6.03;;
5127;SDS011;2582;48.770;9.190;2022-12-20T13:25:38;7.57;;;5.70;;
5127;SDS011;2582;48.770;9.190;2022-12-20T13:33:45;7.73;;;4.57;;
5127;SDS011;2582;48.770;9.190;2022-12-20T13:38:59;5.63;;;5.03;;
5127;SDS011;2582;48.770;9.190;2022-12-20T13:47:00;5.90;;;4.23;;
5127;SDS011;2582;48.770;9.190;2022-12-20T13:49:36;6.13;;;4.90;;
5127;SDS011;2582;48.770;9.190;2022-12-20T13:54:39;8.33;;;4.40;;
5127;SDS011;2582;48.770;9.190;2022-12-20T13:57:06;3.73;;;3.40;;
5127;SDS011;2582;48.770;9.190;2022-12-20T13:59:38;4.93;;;3.50;;
5127;SDS011;2582;48.770;9.190;2022-12-20T14:02:09;3.73;;;3.33;;
5127;SDS011;2582;48.770;9.190;2022-12-20T14:04:42;4.40;;;3.27;;
5127;SDS011;2582;48.770;9.190;2022-12-20T14:07:12;5.03;;;3.53;;
5127;SDS011;2582;48.770;9.190;2022-12-20T14:09:42;5.80;;;3.97;;
5127;SDS011;2582;48.770;9.190;2022-12-20T14:12:14;4.47;;;3.67;;
5127;SDS011;2582;48.770;9.190;2022-12-20T14:14:45;4.60;;;3.30;;
5127;SDS011;2582;48.770;9.190;2022-12-20T14:19:41;3.97;;;3.67;;
5127;SDS011;2582;48.770;9.190;2022-12-20T14:22:08;4.27;;;3.87;;
5127;SDS011;2582;48.770;9.190;2022-12-20T14:24:36;3.53;;;3.23;;
5127;SDS011;2582;48.770;9.190;2022-12-20T14:27:05;5.43;;;3.67;;
5127;SDS011;2582;48.770;9.190;2022-12-20T14:29:32;4.87;;;3.73;;
5127;SDS011;2582;48.770;9.190;2022-12-20T14:31:58;4.30;;;3.90;;
5127;SDS011;2582;48.770;9.190;2022-12-20T14:34:28;4.87;;;4.37;;
5127;SDS011;2582;48.770;9.190;2022-12-20T14:42:21;26.03;;;7.30;;
5127;SDS011;2582;48.770;9.190;2022-12-20T14:44:51;10.33;;;7.60;;
5127;SDS011;2582;48.770;9.190;2022-12-20T14:47:47;7.23;;;5.10;;
5127;SDS011;2582;48.770;9.190;2022-12-20T14:50:29;5.80;;;5.00;;
5127;SDS011;2582;48.770;9.190;2022-12-20T14:53:02;9.77;;;4.73;;
5127;SDS011;2582;48.770;9.190;2022-12-20T14:55:32;5.23;;;4.47;;
5127;SDS011;2582;48.770;9.190;2022-12-20T14:58:01;5.40;;;4.10;;
5127;SDS011;2582;48.770;9.190;2022-12-20T15:01:00;5.90;;;4.87;;
5127;SDS011;2582;48.770;9.190;2022-12-20T15:03:50;6.00;;;4.63;;
5127;SDS011;2582;48.770;9.190;2022-12-20T15:06:30;5.90;;;4.87;;
5127;SDS011;2582;48.770;9.190;2022-12-20T15:09:05;4.90;;;4.40;;
5127;SDS011;2582;48.770;9.190;2022-12-20T15:11:30;5.23;;;4.07;;
5127;SDS011;2582;48.770;9.190;2022-12-20T15:13:59;7.07;;;5.77;;
5127;SDS011;2582;48.770;9.190;2022-12-20T15:16:26;7.37;;;4.23;;
5127;SDS011;2582;48.770;9.190;2022-12-20T15:18:54;7.10;;;4.00;;
5127;SDS011;2582;48.770;9.190;2022-12-20T15:21:28;7.37;;;5.00;;
5127;SDS011;2582;48.770;9.190;2022-12-20T15:23:56;8.90;;;5.57;;
5127;SDS011;2582;48.770;9.190;2022-12-20T15:26:25;5.83;;;4.50;;
5127;SDS011;2582;48.770;9.190;2022-12-20T15:28:51;9.00;;;5.90;;
5127;SDS011;2582;48.770;9.190;2022-12-20T15:31:18;5.90;;;4.67;;
5127;SDS011;2582;48.770;9.190;2022-12-20T15:33:45;5.97;;;5.40;;
5127;SDS011;2582;48.770;9.190;2022-12-20T15:36:18;5.30;;;4.70;;
5127;SDS011;2582;48.770;9.190;2022-12-20T15:38:46;5.30;;;4.80;;
5127;SDS011;2582;48.770;9.190;2022-12-20T15:41:13;5.20;;;4.47;;
5127;SDS011;2582;48.770;9.190;2022-12-20T15:43:46;5.77;;;4.70;;
5127;SDS011;2582;48.770;9.190;2022-12-20T15:46:16;7.43;;;4.77;;
5127;SDS011;2582;48.770;9.190;2022-12-20T15:48:41;6.87;;;5.00;;
5127;SDS011;2582;48.770;9.190;2022-12-20T15:51:15;6.13;;;5.40;;
5127;SDS011;2582;48.770;9.190;2022-12-20T15:53:45;6.77;;;5.90;;
5127;SDS011;2582;48.770;9.190;2022-12-20T15:56:16;11.80;;;7.43;;
5127;SDS011;2582;48.770;9.190;2022-12-20T15:58:43;6.93;;;6.23;;
5127;SDS011;2582;48.770;9.190;2022-12-20T16:01:11;10.83;;;6.70;;
5127;SDS011;2582;48.770;9.190;2022-12-20T16:03:42;7.70;;;6.70;;
5127;SDS011;2582;48.770;9.190;2022-12-20T16:06:11;9.90;;;8.00;;
5127;SDS011;2582;48.770;9.190;2022-12-20T16:08:37;7.77;;;6.97;;
5127;SDS011;2582;48.770;9.190;2022-12-20T16:11:03;8.57;;;7.13;;
5127;SDS011;2582;48.770;9.190;2022-12-20T16:13:30;8.60;;;7.10;;
5127;SDS011;2582;48.770;9.190;2022-12-20T16:15:56;10.60;;;7.63;;
5127;SDS011;2582;48.770;9.190;2022-12-20T16:18:21;7.40;;;6.67;;
5127;SDS011;2582;48.770;9.190;2022-12-20T16:20:47;8.77;;;7.73;;
5127;SDS011;2582;48.770;9.190;2022-12-20T16:23:14;11.13;;;8.87;;
5127;SDS011;2582;48.770;9.190;2022-12-20T16:25:48;13.77;;;8.90;;
5127;SDS011;2582;48.770;9.190;2022-12-20T16:28:14;11.57;;;8.60;;
5127;SDS011;2582;48.770;9.190;2022-12-20T16:30:41;8.80;;;7.87;;
5127;SDS011;2582;48.770;9.190;2022-12-20T16:33:10;10.23;;;8.23;;
5127;SDS011;2582;48.770;9.190;2022-12-20T16:35:43;10.07;;;8.00;;
5127;SDS011;2582;48.770;9.190;2022-12-20T16:38:08;10.27;;;8.10;;
5127;SDS011;2582;48.770;9.190;2022-12-20T16:40:34;9.77;;;8.70;;
5127;SDS011;2582;48.770;9.190;2022-12-20T16:43:00;10.17;;;7.80;;
5127;SDS011;2582;48.770;9.190;2022-12-20T16:45:29;11.30;;;7.70;;
5127;SDS011;2582;48.770;9.190;2022-12-20T16:47:56;8.23;;;7.00;;
5127;SDS011;2582;48.770;9.190;2022-12-20T16:50:23;8.20;;;6.93;;
5127;SDS011;2582;48.770;9.190;2022-12-20T16:52:50;8.67;;;7.00;;
5127;SDS011;2582;48.770;9.190;2022-12-20T16:55:23;8.30;;;6.40;;
5127;SDS011;2582;48.770;9.190;2022-12-20T16:57:50;9.07;;;6.60;;
5127;SDS011;2582;48.770;9.190;2022-12-20T17:00:17;14.23;;;11.50;;
5127;SDS011;2582;48.770;9.190;2022-12-20T17:02:51;17.47;;;11.53;;
5127;SDS011;2582;48.770;9.190;2022-12-20T17:05:19;11.90;;;9.53;;
5127;SDS011;2582;48.770;9.190;2022-12-20T17:07:46;12.33;;;10.83;;
5127;SDS011;2582;48.770;9.190;2022-12-20T17:10:12;13.50;;;10.00;;